Time;durP1;ratioP1;P1;durP2;ratioP2;P2;SDS_P1;SDS_P2;PMS_P1;PMS_P2;Temp;Humidity;BMP_temperature;BMP_pressure;BME280_temperature;BME280_humidity;BME280_pressure;Samples;Min_cycle;Max_cycle;Signal;HPM_P1;HPM_P2
2022/11/21 00:00:24;;;;;;;16.83;10.25;;;22.30;60.80;;;;;;5024924;28;20140;-68
2022/11/21 00:02:50;;;;;;;17.55;10.27;;;22.30;60.80;;;;;;5028310;28;20603;-68
2022/11/21 00:05:16;;;;;;;19.60;10.30;;;22.40;60.80;;;;;;5041448;28;20029;-69
2022/11/21 00:07:44;;;;;;;20.63;10.55;;;22.30;60.60;;;;;;5042448;28;20815;-68
2022/11/21 00:10:12;;;;;;;17.70;10.60;;;22.30;60.60;;;;;;5024682;28;20034;-69
2022/11/21 00:12:38;;;;;;;17.48;10.32;;;22.40;60.60;;;;;;5010901;28;20141;-68
2022/11/21 00:15:05;;;;;;;20.48;11.27;;;22.40;60.50;;;;;;5012808;28;20087;-69
2022/11/21 00:17:31;;;;;;;15.77;10.63;;;22.40;60.50;;;;;;5049393;28;20029;-68
2022/11/21 00:19:57;;;;;;;17.95;10.50;;;22.30;60.60;;;;;;5035275;28;20128;-68
2022/11/21 00:22:23;;;;;;;18.27;10.80;;;22.40;60.40;;;;;;5033950;28;20060;-68
2022/11/21 00:24:48;;;;;;;17.95;10.02;;;22.40;60.30;;;;;;5045953;28;20094;-67
2022/11/21 00:27:14;;;;;;;18.05;9.88;;;22.40;60.30;;;;;;5047505;28;20053;-69
2022/11/21 00:29:40;;;;;;;16.35;10.48;;;22.40;60.20;;;;;;5047612;28;20044;-69
2022/11/21 00:32:06;;;;;;;18.92;10.50;;;22.40;60.20;;;;;;5047462;28;20037;-68
2022/11/21 00:34:32;;;;;;;16.75;10.45;;;22.40;60.30;;;;;;5046247;28;20028;-68
2022/11/21 00:36:58;;;;;;;16.50;10.00;;;22.30;60.60;;;;;;5047578;28;20505;-68
2022/11/21 00:39:24;;;;;;;20.73;10.63;;;22.40;60.60;;;;;;5042481;28;20506;-68
2022/11/21 00:41:50;;;;;;;16.92;9.80;;;22.30;60.70;;;;;;5050443;28;20033;-69
2022/11/21 00:44:16;;;;;;;16.33;9.65;;;22.40;61.00;;;;;;5048735;28;20127;-69
2022/11/21 00:46:42;;;;;;;18.58;10.77;;;22.30;61.10;;;;;;5028683;28;20399;-69
2022/11/21 00:49:08;;;;;;;16.85;9.55;;;22.30;61.20;;;;;;5032798;28;20042;-69
2022/11/21 00:51:34;;;;;;;16.65;9.45;;;22.40;61.50;;;;;;5051452;28;20479;-68
2022/11/21 00:54:00;;;;;;;16.48;9.85;;;22.20;61.50;;;;;;5044898;28;20041;-69
2022/11/21 00:56:26;;;;;;;18.05;9.90;;;22.20;61.70;;;;;;5046492;28;20033;-68
2022/11/21 00:58:52;;;;;;;20.27;11.25;;;22.20;61.80;;;;;;5040341;28;20033;-68
2022/11/21 01:01:18;;;;;;;18.67;9.45;;;22.20;61.90;;;;;;5034595;28;20029;-68
2022/11/21 01:03:45;;;;;;;17.65;10.32;;;22.20;62.10;;;;;;5051335;28;20035;-68
2022/11/21 01:06:14;;;;;;;18.73;10.50;;;22.10;62.10;;;;;;5031130;28;20041;-68
2022/11/21 01:08:42;;;;;;;16.95;9.35;;;22.20;62.20;;;;;;5044658;28;20025;-69
2022/11/21 01:11:12;;;;;;;18.33;9.68;;;22.30;62.40;;;;;;5053347;28;20743;-69
2022/11/21 01:13:38;;;;;;;16.52;9.13;;;22.20;62.00;;;;;;5033251;28;20525;-69
2022/11/21 01:16:05;;;;;;;17.33;9.80;;;22.20;62.00;;;;;;5035552;28;20485;-68
2022/11/21 01:18:31;;;;;;;13.15;7.43;;;22.20;61.90;;;;;;5053537;28;20041;-69
2022/11/21 01:21:06;;;;;;;11.43;6.82;;;22.20;61.80;;;;;;5043247;28;20074;-70
2022/11/21 01:23:32;;;;;;;16.08;7.90;;;22.30;61.60;;;;;;5032055;28;20072;-69
2022/11/21 01:26:02;;;;;;;19.63;10.77;;;22.40;61.30;;;;;;5031080;28;20091;-69
2022/11/21 01:28:28;;;;;;;18.83;9.82;;;22.30;61.20;;;;;;5023764;28;20037;-69
2022/11/21 01:30:54;;;;;;;17.73;9.35;;;22.30;60.90;;;;;;5038926;28;20102;-69
2022/11/21 01:33:20;;;;;;;14.98;7.43;;;22.20;60.70;;;;;;5053056;28;20036;-68
2022/11/21 01:35:46;;;;;;;13.32;8.10;;;22.30;60.50;;;;;;5064120;28;20067;-69
2022/11/21 01:38:12;;;;;;;15.07;8.15;;;22.20;60.30;;;;;;5049271;28;20091;-68
2022/11/21 01:40:39;;;;;;;15.80;8.73;;;22.10;60.30;;;;;;5049699;28;20036;-68
2022/11/21 01:43:14;;;;;;;14.88;8.27;;;22.20;60.30;;;;;;5053030;28;20034;-68
2022/11/21 01:45:53;;;;;;;17.23;9.10;;;22.10;60.10;;;;;;5037512;28;20036;-69
2022/11/21 01:48:25;;;;;;;15.13;8.57;;;22.00;60.00;;;;;;5052900;28;20029;-68
2022/11/21 01:50:54;;;;;;;15.68;9.55;;;22.00;60.00;;;;;;5048327;28;20045;-69
2022/11/21 01:53:20;;;;;;;17.55;9.60;;;22.00;59.90;;;;;;5045922;28;20113;-69
2022/11/21 01:55:46;;;;;;;15.20;8.85;;;21.90;60.00;;;;;;5032577;28;20053;-69
2022/11/21 01:58:12;;;;;;;16.30;8.85;;;22.00;59.80;;;;;;5031421;28;20033;-68
2022/11/21 02:00:40;;;;;;;13.10;8.02;;;22.00;59.70;;;;;;5034881;28;20028;-68
2022/11/21 02:03:11;;;;;;;15.68;9.75;;;22.10;59.80;;;;;;5050226;28;20052;-68
2022/11/21 02:05:39;;;;;;;17.73;10.07;;;21.90;59.60;;;;;;5046075;28;20140;-67
2022/11/21 02:08:26;;;;;;;16.10;9.23;;;22.00;59.60;;;;;;5043254;28;20591;-68
2022/11/21 02:11:08;;;;;;;15.07;8.77;;;22.10;59.50;;;;;;5032048;28;20053;-68
2022/11/21 02:13:34;;;;;;;12.13;7.72;;;22.00;59.30;;;;;;5032841;28;20071;-68
2022/11/21 02:16:00;;;;;;;19.23;9.18;;;22.10;59.30;;;;;;5030056;28;20033;-69
2022/11/21 02:18:26;;;;;;;15.13;8.82;;;22.00;59.10;;;;;;5062528;28;20053;-68
2022/11/21 02:21:01;;;;;;;13.45;8.18;;;22.10;59.10;;;;;;5036021;28;20029;-69
2022/11/21 02:23:44;;;;;;;17.73;8.90;;;22.00;58.80;;;;;;5042567;28;20497;-69
2022/11/21 02:26:11;;;;;;;14.73;8.30;;;22.10;58.80;;;;;;5048623;28;20073;-69
2022/11/21 02:28:37;;;;;;;17.02;8.68;;;22.00;58.50;;;;;;5034329;28;20115;-68
2022/11/21 02:31:03;;;;;;;14.75;8.10;;;22.10;58.50;;;;;;5039344;28;20041;-69
2022/11/21 02:33:28;;;;;;;15.20;8.43;;;22.00;58.60;;;;;;5052139;28;20493;-68
2022/11/21 02:35:59;;;;;;;15.57;8.23;;;22.00;58.50;;;;;;5046399;28;20063;-68
2022/11/21 02:38:35;;;;;;;13.23;7.88;;;22.10;58.50;;;;;;5063746;28;20056;-69
2022/11/21 02:41:25;;;;;;;13.05;7.93;;;22.10;58.50;;;;;;5048837;28;20159;-68
2022/11/21 02:44:18;;;;;;;15.68;7.75;;;22.10;58.40;;;;;;5031714;28;20559;-69
2022/11/21 02:46:49;;;;;;;12.10;7.22;;;21.90;58.30;;;;;;5042879;28;20040;-68
2022/11/21 02:49:21;;;;;;;13.15;7.53;;;21.90;58.20;;;;;;5049394;28;20497;-68
2022/11/21 02:51:47;;;;;;;11.07;5.95;;;21.90;58.20;;;;;;5034881;28;20136;-68
2022/11/21 02:54:13;;;;;;;9.15;6.03;;;22.00;58.10;;;;;;5033548;28;20037;-69
2022/11/21 02:56:39;;;;;;;14.73;6.88;;;22.00;58.10;;;;;;5049705;28;20041;-69
2022/11/21 02:59:05;;;;;;;11.32;6.63;;;21.80;58.00;;;;;;5031352;28;20064;-69
2022/11/21 03:01:31;;;;;;;14.07;7.68;;;21.80;57.90;;;;;;5038306;28;20446;-68
2022/11/21 03:03:57;;;;;;;13.57;7.63;;;21.90;58.10;;;;;;5044762;28;20178;-68
2022/11/21 03:06:23;;;;;;;13.25;7.30;;;21.90;58.00;;;;;;5019864;28;20412;-68
2022/11/21 03:08:49;;;;;;;11.88;7.07;;;21.90;57.90;;;;;;5045832;28;20025;-69
2022/11/21 03:11:15;;;;;;;12.82;6.93;;;22.00;57.90;;;;;;5048234;28;20033;-69
2022/11/21 03:13:41;;;;;;;13.40;7.18;;;21.90;57.80;;;;;;5031552;28;20402;-68
2022/11/21 03:16:06;;;;;;;12.05;6.47;;;21.90;57.60;;;;;;5044228;28;20036;-69
2022/11/21 03:18:32;;;;;;;10.18;5.88;;;22.00;57.60;;;;;;5051176;28;20059;-68
2022/11/21 03:20:58;;;;;;;13.90;7.13;;;22.00;57.60;;;;;;5048327;28;20017;-69
2022/11/21 03:23:24;;;;;;;12.45;7.07;;;22.00;57.50;;;;;;5044829;28;20029;-69
2022/11/21 03:25:50;;;;;;;11.43;7.18;;;21.90;57.30;;;;;;5043932;28;20045;-68
2022/11/21 03:28:16;;;;;;;13.40;6.95;;;22.00;57.20;;;;;;5032709;28;20328;-69
2022/11/21 03:30:42;;;;;;;11.43;7.18;;;22.00;57.20;;;;;;5035228;28;20598;-68
2022/11/21 03:33:08;;;;;;;14.05;7.55;;;21.90;57.20;;;;;;5051355;28;20504;-68
2022/11/21 03:35:34;;;;;;;12.48;7.20;;;21.80;57.20;;;;;;5051206;28;20044;-69
2022/11/21 03:38:00;;;;;;;14.07;7.10;;;21.80;57.10;;;;;;5037751;28;20039;-69
2022/11/21 03:40:26;;;;;;;12.77;6.78;;;21.70;57.10;;;;;;5029166;28;20112;-69
2022/11/21 03:42:52;;;;;;;13.65;7.20;;;21.90;57.20;;;;;;5029915;28;20091;-68
2022/11/21 03:45:19;;;;;;;14.90;7.70;;;21.80;57.00;;;;;;5037962;28;20049;-69
2022/11/21 03:47:45;;;;;;;12.98;7.22;;;21.70;57.10;;;;;;5068043;28;20481;-68
2022/11/21 03:50:13;;;;;;;12.95;7.35;;;21.70;57.00;;;;;;5053388;28;20119;-68
2022/11/21 03:52:39;;;;;;;11.43;6.70;;;21.70;57.10;;;;;;5056761;28;20162;-67
2022/11/21 03:55:06;;;;;;;14.13;7.32;;;21.70;57.00;;;;;;5063736;28;20112;-68
2022/11/21 03:57:31;;;;;;;10.30;7.20;;;21.80;56.90;;;;;;5051019;28;20123;-68
2022/11/21 03:59:57;;;;;;;13.13;7.45;;;21.80;56.80;;;;;;5061418;28;20433;-68
2022/11/21 04:02:23;;;;;;;14.40;7.85;;;21.80;56.80;;;;;;5067012;28;20036;-69
2022/11/21 04:04:49;;;;;;;15.23;7.32;;;21.80;56.70;;;;;;5060438;28;20505;-69
2022/11/21 04:07:15;;;;;;;10.73;6.70;;;21.80;56.60;;;;;;5065986;28;20062;-69
2022/11/21 04:09:41;;;;;;;12.05;7.22;;;21.90;56.50;;;;;;5045932;28;20117;-68
2022/11/21 04:12:07;;;;;;;11.27;6.55;;;21.80;56.40;;;;;;5056939;28;20057;-69
2022/11/21 04:14:33;;;;;;;11.98;6.70;;;22.00;56.50;;;;;;5048081;28;20474;-69
2022/11/21 04:16:59;;;;;;;12.00;7.05;;;21.90;56.50;;;;;;5058783;28;20029;-69
2022/11/21 04:19:25;;;;;;;10.93;6.75;;;21.80;56.40;;;;;;5052890;28;20045;-68
2022/11/21 04:21:51;;;;;;;17.23;9.32;;;21.90;56.40;;;;;;5033314;28;20059;-69
2022/11/21 04:24:17;;;;;;;31.38;17.27;;;21.80;56.20;;;;;;5051264;28;20086;-68
2022/11/21 04:26:43;;;;;;;12.50;7.25;;;21.90;56.30;;;;;;5047604;28;20049;-68
2022/11/21 04:29:09;;;;;;;10.73;6.93;;;21.80;56.10;;;;;;5034307;28;20029;-69
2022/11/21 04:31:35;;;;;;;12.65;6.72;;;21.90;56.20;;;;;;5045738;28;20087;-69
2022/11/21 04:34:01;;;;;;;10.55;6.57;;;21.80;56.10;;;;;;5054277;28;20029;-69
2022/11/21 04:36:27;;;;;;;8.23;5.72;;;21.90;56.10;;;;;;5048243;28;20040;-69
2022/11/21 04:38:53;;;;;;;7.28;5.30;;;21.80;56.00;;;;;;5051679;28;20389;-68
2022/11/21 04:41:19;;;;;;;10.68;6.18;;;21.90;56.00;;;;;;5043202;28;20168;-69
2022/11/21 04:43:45;;;;;;;8.05;5.35;;;21.80;55.90;;;;;;5034530;28;20394;-69
2022/11/21 04:46:11;;;;;;;6.70;4.82;;;21.80;56.00;;;;;;5032926;28;20117;-69
2022/11/21 04:48:37;;;;;;;8.95;5.63;;;21.80;56.00;;;;;;5034197;28;20366;-69
2022/11/21 04:51:03;;;;;;;8.82;5.70;;;21.90;56.00;;;;;;5036603;28;20041;-69
2022/11/21 04:53:29;;;;;;;6.22;4.57;;;21.70;56.00;;;;;;5050956;28;20037;-69
2022/11/21 04:55:55;;;;;;;6.95;3.75;;;21.70;56.10;;;;;;5044050;28;20433;-68
2022/11/21 04:58:21;;;;;;;6.95;3.72;;;21.80;56.10;;;;;;5032835;28;20041;-69
2022/11/21 05:00:47;;;;;;;3.28;2.75;;;21.70;56.20;;;;;;5039480;28;20025;-69
2022/11/21 05:03:13;;;;;;;3.80;3.20;;;21.70;56.10;;;;;;5054045;28;20395;-69
2022/11/21 05:05:39;;;;;;;4.03;2.78;;;21.70;56.10;;;;;;5049918;28;20033;-69
2022/11/21 05:08:05;;;;;;;3.55;2.58;;;21.80;56.10;;;;;;5050804;28;20108;-70
2022/11/21 05:13:19;;;;;;;2.97;2.60;;;21.80;56.00;;;;;;5047458;28;20039;-69
2022/11/21 05:13:22;;;;;;;4.78;2.72;;;21.70;55.90;;;;;;5040562;28;20532;-69
2022/11/21 05:15:50;;;;;;;3.72;2.75;;;21.90;55.90;;;;;;5051871;28;20024;-69
2022/11/21 05:18:18;;;;;;;3.30;2.70;;;21.90;55.70;;;;;;5053685;28;20439;-69
2022/11/21 05:20:44;;;;;;;4.43;2.90;;;21.80;55.50;;;;;;5039732;28;20403;-69
2022/11/21 05:23:10;;;;;;;4.00;2.97;;;21.90;55.70;;;;;;5023527;28;20042;-69
2022/11/21 05:25:36;;;;;;;3.55;2.60;;;22.00;55.30;;;;;;5038106;28;20449;-69
2022/11/21 05:28:02;;;;;;;2.58;2.33;;;22.00;55.30;;;;;;5031250;28;20711;-69
2022/11/21 05:30:28;;;;;;;4.63;2.95;;;22.00;55.30;;;;;;5031732;28;20448;-69
2022/11/21 05:32:54;;;;;;;2.83;2.10;;;21.90;55.20;;;;;;5032450;28;20424;-69
2022/11/21 05:35:20;;;;;;;2.78;2.38;;;21.90;55.40;;;;;;5033491;28;20113;-69
2022/11/21 05:37:46;;;;;;;2.83;2.08;;;21.90;55.40;;;;;;5040574;28;20044;-68
2022/11/21 05:40:12;;;;;;;3.13;2.22;;;21.90;55.50;;;;;;5034957;28;20018;-69
2022/11/21 05:45:25;;;;;;;4.10;2.85;;;21.70;55.40;;;;;;5034659;28;20032;-69
2022/11/21 05:47:51;;;;;;;2.60;2.30;;;21.90;55.50;;;;;;5036853;28;20029;-69
2022/11/21 05:50:17;;;;;;;7.50;2.33;;;21.70;55.50;;;;;;5033408;28;20536;-69
2022/11/21 05:52:43;;;;;;;2.33;2.03;;;21.70;55.40;;;;;;5040521;28;20051;-69
2022/11/21 05:55:09;;;;;;;2.45;2.03;;;21.70;55.60;;;;;;5047343;28;20498;-69
2022/11/21 05:57:35;;;;;;;2.80;1.88;;;21.70;55.50;;;;;;5031793;28;20091;-69
2022/11/21 06:00:01;;;;;;;2.30;1.80;;;21.70;55.60;;;;;;5033116;28;20037;-68
2022/11/21 06:05:14;;;;;;;2.67;2.05;;;21.70;55.60;;;;;;5031977;28;20033;-69
2022/11/21 06:07:40;;;;;;;1.83;1.45;;;21.60;55.40;;;;;;5041297;28;20381;-69
2022/11/21 06:10:06;;;;;;;2.13;1.85;;;21.50;55.50;;;;;;5051419;28;20116;-69
2022/11/21 06:12:32;;;;;;;1.50;1.40;;;21.50;55.80;;;;;;5033357;28;20037;-69
2022/11/21 06:14:58;;;;;;;1.52;1.42;;;21.60;55.70;;;;;;5032891;28;20125;-69
2022/11/21 06:17:24;;;;;;;2.58;1.95;;;21.50;55.70;;;;;;5041281;28;20565;-69
2022/11/21 06:19:51;;;;;;;1.73;1.30;;;21.50;55.60;;;;;;5032539;28;20031;-69
2022/11/21 06:22:17;;;;;;;2.83;1.73;;;21.60;55.70;;;;;;5032254;28;20037;-69
2022/11/21 06:24:43;;;;;;;1.58;1.40;;;21.50;55.50;;;;;;5033582;28;20111;-69
2022/11/21 06:27:09;;;;;;;2.85;1.85;;;21.40;55.50;;;;;;5029279;28;20033;-69
2022/11/21 06:29:35;;;;;;;2.10;1.90;;;21.40;55.50;;;;;;5032537;28;20036;-69
2022/11/21 06:32:01;;;;;;;2.28;1.83;;;21.40;55.60;;;;;;5032538;28;20037;-69
2022/11/21 06:34:27;;;;;;;4.43;2.92;;;21.40;55.40;;;;;;5031542;28;20056;-69
2022/11/21 06:36:53;;;;;;;1.90;1.80;;;21.60;55.40;;;;;;5032388;28;20120;-69
2022/11/21 06:39:19;;;;;;;1.15;0.90;;;21.50;55.30;;;;;;5030635;28;20048;-69
2022/11/21 06:41:49;;;;;;;1.85;1.60;;;21.70;55.30;;;;;;5030624;28;20037;-69
2022/11/21 06:44:17;;;;;;;1.00;1.00;;;21.70;55.20;;;;;;5030125;28;20037;-69
2022/11/21 06:46:43;;;;;;;1.73;1.63;;;21.70;55.00;;;;;;5036214;28;20043;-69
2022/11/21 06:49:09;;;;;;;2.28;1.77;;;21.60;55.00;;;;;;5044829;28;20793;-68
2022/11/21 06:51:35;;;;;;;2.63;1.45;;;21.70;55.20;;;;;;5034017;28;20036;-66
2022/11/21 06:54:01;;;;;;;1.88;1.67;;;21.70;56.00;;;;;;5036583;28;20395;-67
2022/11/21 06:56:29;;;;;;;1.50;1.40;;;21.70;50.00;;;;;;5036105;28;20359;-66
2022/11/21 06:58:56;;;;;;;1.95;1.77;;;21.70;48.70;;;;;;5029962;28;20013;-67
2022/11/21 07:01:22;;;;;;;2.30;1.65;;;21.90;47.80;;;;;;5031557;28;20041;-68
2022/11/21 07:03:48;;;;;;;1.52;1.20;;;22.00;47.70;;;;;;5031462;28;20025;-67
2022/11/21 07:06:23;;;;;;;2.22;1.50;;;22.00;46.60;;;;;;5120955;27;20105;-68
2022/11/21 07:08:52;;;;;;;1.85;1.58;;;22.00;46.70;;;;;;5106555;28;20093;-68
2022/11/21 07:11:18;;;;;;;2.20;1.85;;;22.20;46.40;;;;;;5105765;28;20066;-67
2022/11/21 07:13:44;;;;;;;2.05;1.88;;;22.30;46.20;;;;;;5070653;28;20032;-68
2022/11/21 07:16:14;;;;;;;3.63;3.30;;;22.50;46.90;;;;;;5088856;28;20047;-66
2022/11/21 07:18:41;;;;;;;2.42;2.22;;;22.50;45.80;;;;;;5095229;28;20047;-65
2022/11/21 07:21:09;;;;;;;2.80;2.35;;;22.60;46.40;;;;;;5092667;28;20032;-66
2022/11/21 07:23:35;;;;;;;2.90;2.60;;;22.70;47.10;;;;;;5099675;28;20031;-68
2022/11/21 07:26:06;;;;;;;3.97;3.35;;;22.80;46.30;;;;;;5074269;28;20081;-68
2022/11/21 07:28:32;;;;;;;3.42;2.47;;;22.80;46.30;;;;;;5087648;28;20036;-68
2022/11/21 07:31:00;;;;;;;4.20;1.90;;;22.80;46.40;;;;;;5098945;28;20119;-68
2022/11/21 07:33:26;;;;;;;2.60;2.03;;;22.80;44.40;;;;;;5105158;28;20034;-68
2022/11/21 07:35:55;;;;;;;2.17;1.45;;;22.90;44.60;;;;;;5103637;28;20419;-68
2022/11/21 07:38:21;;;;;;;1.63;1.50;;;22.90;45.00;;;;;;5092783;28;20040;-67
2022/11/21 07:40:47;;;;;;;1.65;1.55;;;23.00;44.60;;;;;;5090351;28;20040;-69
2022/11/21 07:43:13;;;;;;;1.50;1.40;;;23.00;55.40;;;;;;5094920;28;20040;-68
2022/11/21 07:45:39;;;;;;;2.33;1.50;;;23.10;57.00;;;;;;5093387;28;20549;-69
2022/11/21 07:48:06;;;;;;;1.52;1.42;;;23.10;57.40;;;;;;5096705;28;20579;-69
2022/11/21 07:50:33;;;;;;;1.88;1.55;;;23.00;57.30;;;;;;5096122;28;20415;-69
2022/11/21 07:53:01;;;;;;;2.10;1.38;;;22.90;59.80;;;;;;5094326;28;20086;-68
2022/11/21 07:55:30;;;;;;;1.27;1.17;;;22.80;60.60;;;;;;5096422;28;20547;-68
2022/11/21 07:57:58;;;;;;;1.17;1.08;;;22.80;60.40;;;;;;5091462;28;20059;-66
2022/11/21 08:00:25;;;;;;;1.30;1.20;;;22.80;61.60;;;;;;5103624;28;20111;-67
2022/11/21 08:02:51;;;;;;;1.35;1.15;;;23.00;60.00;;;;;;5095893;28;20032;-67
2022/11/21 08:05:17;;;;;;;1.80;1.40;;;22.90;57.40;;;;;;5073016;28;20105;-67
2022/11/21 08:07:43;;;;;;;3.58;1.50;;;23.00;56.90;;;;;;5090079;28;20119;-67
2022/11/21 08:10:09;;;;;;;2.10;1.40;;;22.90;57.10;;;;;;5096462;28;20123;-68
2022/11/21 08:12:35;;;;;;;1.52;1.08;;;22.90;57.30;;;;;;5099254;28;20028;-66
2022/11/21 08:15:03;;;;;;;1.27;1.17;;;22.90;57.60;;;;;;5086510;28;20036;-72
2022/11/21 08:17:29;;;;;;;2.22;1.20;;;22.70;58.10;;;;;;5081849;28;20036;-69
2022/11/21 08:19:57;;;;;;;1.33;1.10;;;22.70;58.80;;;;;;5061462;28;20032;-68
2022/11/21 08:22:23;;;;;;;1.20;1.10;;;22.80;59.40;;;;;;5081473;28;20037;-69
2022/11/21 08:24:49;;;;;;;1.45;1.15;;;22.70;59.60;;;;;;5078138;28;20059;-68
2022/11/21 08:27:19;;;;;;;1.40;1.30;;;22.70;59.80;;;;;;5086267;28;20081;-70
2022/11/21 08:29:45;;;;;;;1.77;1.20;;;22.80;60.10;;;;;;5073912;28;20028;-68
2022/11/21 08:32:11;;;;;;;1.42;1.23;;;23.00;59.20;;;;;;5088967;28;20107;-68
2022/11/21 08:34:37;;;;;;;2.03;1.23;;;23.20;59.00;;;;;;5090709;28;20031;-69
2022/11/21 08:37:03;;;;;;;1.42;1.33;;;23.30;58.30;;;;;;5090435;28;20024;-67
2022/11/21 08:39:32;;;;;;;1.08;1.08;;;23.30;57.70;;;;;;5077792;28;20115;-70
2022/11/21 08:42:01;;;;;;;1.88;1.63;;;23.50;57.10;;;;;;5089740;28;20020;-69
2022/11/21 08:44:32;;;;;;;1.33;1.23;;;23.70;56.50;;;;;;5089283;28;20759;-69
2022/11/21 08:46:59;;;;;;;2.22;1.45;;;23.60;56.00;;;;;;5076600;28;20043;-70
2022/11/21 08:49:25;;;;;;;3.35;1.52;;;23.60;55.40;;;;;;5091418;28;20031;-68
2022/11/21 08:51:51;;;;;;;2.63;1.55;;;23.50;55.00;;;;;;5092795;28;20142;-68
2022/11/21 08:54:22;;;;;;;1.77;1.35;;;23.70;54.60;;;;;;5082809;28;20404;-69
2022/11/21 08:56:49;;;;;;;1.15;1.10;;;23.70;53.60;;;;;;5080171;28;20024;-69
2022/11/21 08:59:15;;;;;;;2.88;1.25;;;23.70;52.20;;;;;;5073239;28;20061;-67
2022/11/21 09:01:42;;;;;;;3.40;1.63;;;23.70;50.80;;;;;;5063854;28;20047;-68
2022/11/21 09:04:08;;;;;;;2.22;1.55;;;23.80;49.40;;;;;;5074851;28;20032;-70
2022/11/21 09:06:35;;;;;;;2.00;1.50;;;23.80;48.60;;;;;;5068657;28;20581;-70
2022/11/21 09:09:04;;;;;;;1.95;1.50;;;23.70;48.30;;;;;;5065800;28;20130;-70
2022/11/21 09:11:30;;;;;;;1.92;1.70;;;23.70;48.50;;;;;;5063477;28;20043;-68
2022/11/21 09:19:27;;;;;;;1.73;1.42;;;23.40;51.20;;;;;;5071999;28;20039;-71
2022/11/21 09:21:53;;;;;;;2.10;1.73;;;23.30;52.20;;;;;;5044276;28;20021;-71
2022/11/21 09:24:19;;;;;;;10.50;3.38;;;23.10;49.40;;;;;;5057704;28;20370;-68
2022/11/21 09:26:45;;;;;;;6.70;2.30;;;23.50;51.60;;;;;;5061539;28;20048;-70
2022/11/21 09:29:13;;;;;;;3.72;2.10;;;23.60;41.90;;;;;;5042161;28;20377;-71
2022/11/21 09:31:43;;;;;;;2.85;2.15;;;23.60;44.30;;;;;;5067524;28;20514;-68
2022/11/21 09:34:09;;;;;;;6.18;2.67;;;23.70;43.00;;;;;;5064767;28;20037;-69
2022/11/21 09:36:36;;;;;;;5.18;2.47;;;23.80;49.70;;;;;;5062227;28;20357;-69
2022/11/21 09:39:02;;;;;;;2.92;2.25;;;23.80;51.70;;;;;;5065928;28;20045;-71
2022/11/21 09:41:58;;;;;;;4.25;2.85;;;23.80;52.00;;;;;;5066582;28;20737;-69
2022/11/21 09:44:39;;;;;;;40.08;10.80;;;23.70;52.60;;;;;;5052896;28;20040;-69
2022/11/21 09:47:20;;;;;;;3.50;2.10;;;23.50;53.40;;;;;;5070762;28;20028;-69
2022/11/21 09:50:01;;;;;;;2.72;2.45;;;23.40;55.30;;;;;;5063498;28;20416;-69
2022/11/21 09:52:47;;;;;;;2.20;1.90;;;23.20;57.80;;;;;;5068360;28;20029;-69
2022/11/21 09:55:22;;;;;;;2.28;1.80;;;23.30;58.10;;;;;;5048588;28;20493;-67
2022/11/21 09:57:49;;;;;;;2.83;1.80;;;23.30;57.10;;;;;;5060463;28;20039;-68
2022/11/21 10:00:23;;;;;;;2.15;1.65;;;23.20;56.30;;;;;;5067143;28;20062;-67
2022/11/21 10:02:51;;;;;;;1.75;1.65;;;23.20;55.40;;;;;;5070470;28;20036;-69
2022/11/21 10:05:24;;;;;;;3.10;2.00;;;23.20;56.00;;;;;;5066679;28;20152;-69
2022/11/21 10:07:53;;;;;;;2.15;1.48;;;23.30;47.80;;;;;;5060273;28;20085;-66
2022/11/21 10:10:34;;;;;;;4.25;1.83;;;23.30;46.20;;;;;;5067262;28;20037;-68
2022/11/21 10:13:12;;;;;;;2.72;1.70;;;23.60;48.10;;;;;;5068719;28;20036;-66
2022/11/21 10:15:44;;;;;;;2.90;2.22;;;23.70;53.30;;;;;;5053195;28;20115;-69
2022/11/21 10:18:28;;;;;;;2.45;2.25;;;23.80;52.60;;;;;;5070285;28;20048;-68
2022/11/21 10:21:31;;;;;;;2.33;1.63;;;23.70;53.30;;;;;;5070239;28;20039;-69
2022/11/21 10:24:22;;;;;;;1.55;1.45;;;23.30;53.90;;;;;;5061496;28;20097;-69
2022/11/21 10:26:56;;;;;;;1.10;1.00;;;23.20;52.50;;;;;;5056031;28;20052;-68
2022/11/21 10:29:45;;;;;;;1.48;1.38;;;23.10;56.10;;;;;;5064550;28;20033;-68
2022/11/21 10:32:49;;;;;;;1.52;1.42;;;23.00;55.60;;;;;;5051551;28;20053;-68
2022/11/21 10:35:43;;;;;;;1.50;1.40;;;22.90;55.50;;;;;;4976148;28;20042;-68
2022/11/21 10:38:28;;;;;;;1.92;1.70;;;22.80;57.20;;;;;;4929428;29;20479;-69
2022/11/21 10:40:59;;;;;;;1.65;1.40;;;22.70;57.80;;;;;;4933111;29;20107;-69
2022/11/21 10:46:23;;;;;;;2.22;1.65;;;22.50;58.20;;;;;;4946277;29;20051;-67
2022/11/21 10:49:17;;;;;;;2.15;1.95;;;22.50;58.60;;;;;;4950319;29;20139;-67
2022/11/21 10:51:51;;;;;;;3.33;1.83;;;22.40;58.10;;;;;;4902867;29;20123;-68
2022/11/21 10:54:32;;;;;;;1.92;1.80;;;22.40;58.40;;;;;;4895281;29;20380;-67
2022/11/21 10:57:12;;;;;;;3.03;2.30;;;22.30;58.50;;;;;;4888549;29;20048;-67
2022/11/21 10:59:38;;;;;;;2.75;2.50;;;22.40;58.70;;;;;;4897686;29;20418;-67
2022/11/21 11:02:13;;;;;;;2.53;2.30;;;22.30;58.60;;;;;;4893205;29;20052;-67
2022/11/21 11:04:40;;;;;;;3.10;2.50;;;22.50;58.70;;;;;;4886762;29;21970;-68
2022/11/21 11:07:27;;;;;;;4.35;3.13;;;22.40;58.00;;;;;;4923676;29;20042;-70
2022/11/21 11:10:22;;;;;;;2.95;1.85;;;22.50;50.50;;;;;;4944285;28;20046;-70
2022/11/21 11:15:38;;;;;;;3.35;2.60;;;23.20;53.80;;;;;;4957536;28;20460;-69
2022/11/21 11:18:05;;;;;;;5.72;3.00;;;23.40;47.90;;;;;;4973085;28;20027;-68
2022/11/21 11:20:41;;;;;;;5.97;2.58;;;23.50;46.30;;;;;;4964784;28;20059;-67
2022/11/21 11:23:26;;;;;;;6.57;2.30;;;23.40;46.10;;;;;;4970212;28;20039;-68
2022/11/21 11:25:57;;;;;;;6.55;3.40;;;23.50;49.20;;;;;;4970500;28;20684;-66
2022/11/21 11:28:35;;;;;;;3.47;2.20;;;23.50;43.10;;;;;;5022615;28;20041;-69
2022/11/21 11:31:01;;;;;;;2.75;2.00;;;23.60;48.00;;;;;;5043073;28;20048;-69
2022/11/21 11:33:33;;;;;;;7.35;3.22;;;23.60;45.80;;;;;;5063893;28;20029;-67
2022/11/21 11:36:25;;;;;;;10.33;2.73;;;23.70;46.40;;;;;;5063005;28;20089;-68
2022/11/21 11:38:59;;;;;;;3.20;2.13;;;23.80;44.90;;;;;;4974478;28;20035;-68
2022/11/21 11:47:47;;;;;;;5.10;2.10;;;23.90;42.50;;;;;;4971121;28;20062;-67
2022/11/21 11:50:40;;;;;;;3.78;1.90;;;24.00;42.20;;;;;;4964878;28;20057;-68
2022/11/21 11:53:18;;;;;;;4.30;2.42;;;24.00;44.80;;;;;;4975474;28;20084;-67
2022/11/21 11:56:15;;;;;;;3.05;1.73;;;24.10;46.60;;;;;;4975692;28;20038;-66
2022/11/21 11:58:44;;;;;;;3.00;1.90;;;24.20;43.60;;;;;;4968474;28;20392;-67
2022/11/21 12:01:36;;;;;;;5.18;1.77;;;24.20;42.70;;;;;;4968105;28;20049;-68
2022/11/21 12:04:13;;;;;;;2.47;1.98;;;24.20;44.10;;;;;;4932528;28;20039;-68
2022/11/21 12:07:12;;;;;;;3.92;2.25;;;24.20;43.40;;;;;;4971481;28;20078;-67
2022/11/21 12:10:12;;;;;;;2.67;2.00;;;24.30;40.40;;;;;;4915009;29;20052;-67
2022/11/21 12:12:44;;;;;;;1.85;1.75;;;24.10;38.30;;;;;;4912975;29;20540;-65
2022/11/21 12:18:14;;;;;;;2.38;2.13;;;24.20;51.70;;;;;;4962151;28;20035;-68
2022/11/21 12:21:07;;;;;;;4.88;1.80;;;24.30;52.50;;;;;;4951618;28;20142;-69
2022/11/21 12:23:57;;;;;;;2.30;2.05;;;24.30;52.60;;;;;;4969838;28;21869;-69
2022/11/21 12:26:28;;;;;;;1.92;1.65;;;24.20;53.10;;;;;;4915494;29;20123;-66
2022/11/21 12:29:33;;;;;;;1.90;1.73;;;24.20;53.90;;;;;;4915537;29;20047;-66
2022/11/21 12:32:09;;;;;;;1.90;1.80;;;24.20;54.20;;;;;;4916559;29;20456;-66
2022/11/21 12:34:40;;;;;;;2.22;2.03;;;24.00;54.90;;;;;;4921838;29;20122;-65
2022/11/21 12:37:21;;;;;;;3.40;2.85;;;23.90;54.40;;;;;;4933474;29;20044;-66
2022/11/21 12:40:09;;;;;;;2.35;2.00;;;23.90;55.60;;;;;;4900401;29;20046;-66
2022/11/21 12:42:56;;;;;;;1.85;1.50;;;23.80;57.50;;;;;;4950022;29;20044;-66
2022/11/21 12:45:35;;;;;;;1.85;1.75;;;23.70;58.10;;;;;;4950840;28;20496;-67
2022/11/21 12:54:30;;;;;;;1.73;1.40;;;23.60;58.50;;;;;;5027418;28;20467;-65
2022/11/21 12:57:11;;;;;;;1.33;1.20;;;23.50;58.60;;;;;;5015329;28;20029;-66
2022/11/21 13:00:11;;;;;;;2.63;1.30;;;23.40;59.00;;;;;;5018787;28;20042;-70
2022/11/21 13:03:14;;;;;;;2.28;2.08;;;23.50;58.70;;;;;;5035781;28;20460;-68
2022/11/21 13:05:49;;;;;;;1.02;1.02;;;23.30;60.50;;;;;;5077425;28;20056;-67
2022/11/21 13:08:22;;;;;;;3.00;1.65;;;23.30;64.60;;;;;;5071294;28;20064;-69
2022/11/21 13:14:36;;;;;;;0.73;0.73;;;23.30;66.40;;;;;;5059557;28;20127;-66
2022/11/21 13:17:17;;;;;;;0.90;0.90;;;23.30;64.00;;;;;;5061573;28;20056;-67
2022/11/21 13:20:04;;;;;;;1.42;1.33;;;23.20;62.70;;;;;;5057774;28;20519;-66
2022/11/21 13:22:36;;;;;;;1.48;1.38;;;23.20;62.50;;;;;;5049787;28;20037;-67
2022/11/21 13:25:21;;;;;;;0.80;0.80;;;23.20;62.20;;;;;;5055168;28;20472;-67
2022/11/21 13:27:47;;;;;;;1.20;1.10;;;23.10;62.50;;;;;;5062013;28;20378;-70
2022/11/21 13:30:16;;;;;;;2.15;0.98;;;23.10;59.50;;;;;;5066916;28;20050;-70
2022/11/21 13:32:53;;;;;;;1.38;0.90;;;23.20;61.30;;;;;;5056662;28;20037;-68
2022/11/21 13:35:19;;;;;;;0.95;0.95;;;23.10;60.90;;;;;;5068295;28;20037;-66